Santa Teresa, NM

3:18 PM MDT on July 06, 2015 (GMT -0600)
Carvel acres | | Change Station
CLOSE
Current Station
Personal Weather Station
Location: El Paso, TX
Elevation: 3743 ft
Nearby Weather Stations

Elev 3743 ft 31.85 °N, 106.62 °W | Updated 6 minutes ago

Clear
Clear
101.8 °F
Feels Like 101 °F
N
3.7
Wind Variable Wind from North

Today
High -- | Low -- °F
--% Chance of Precip.
Yesterday
High -- | Low -- °F
Precip. -- in
6:06 AM 8:15 PM
Waning Gibbous, 72% visible
Pressure 29.77 in
Visibility 10.0 miles
Clouds Mostly Cloudy 8000 ft
Heat Index 101 °F
Dew Point 57 °F
Humidity 23%
Rainfall 0.00 in
Snow Depth Not available.
UV 6 out of 12
Pollen 1.90 out of 12
Air Quality Not available.
Flu Activity Not available.
METAR KBIF 062058Z AUTO 25013KT 10SM BKN080 34/11 A2999 RMK AO2 SLP081 T03440114 57026 $

More Conditions Fewer Conditions

Pressure 29.77 in
Visibility 10.0 miles
Clouds Mostly Cloudy 8000 ft
Heat Index 101 °F
Dew Point 57 °F
Humidity 23%
Rainfall 0.00 in
Snow Depth Not available.
UV 6 out of 12
Pollen 1.90 out of 12
Air Quality Not available.
Flu Activity Not available.
METAR KBIF 062058Z AUTO 25013KT 10SM BKN080 34/11 A2999 RMK AO2 SLP081 T03440114 57026 $

More Conditions Fewer Conditions

10-Day Weather Forecast

×

Almanac

Astronomy

Jul. 06, 2015 Rise Set
Actual Time
Civil Twilight
Nautical Twilight
Astronomical Twilight
Moon
Length of Visible Light
Length of Day
Tomorrow will be .
, % of the Moon is Illuminated

Today's Extremes

State Highs State Lows

Community

WunderPhotos

Upload Photos

1,835,651 photos uploaded!

WunderBlogs® & News

Nearby

Air Quality

  Air Quality AQ Index Pollutant
Not available.

Snow Depth

Station Depth Elevation

Earthquake Activity

City Distance Mag. Time & Date
Minimum magnitude displayed is 2.5.

Coastal Water Temperatures

Place Temperature

Stations

Nearby Weather Stations

Station Location Temp. Windchill Dew Point Humidity Wind Precip. Elev Updated Type